• Join FlightAware (Why Join?)
  • Login
  • US Flag GB Flag 
05:30 EDT


 

Airport Tracker/Info


-or-


 

Live Flight TrackerFlight Track Log ✈ EJM916 ✈ 08-Jul-2013 ✈ KSDL - KFAY

Flight Track Log - Related Links

Times and Time Zones

All times are in EDT time to prevent confusion due to time zone crossing. See the EJM916 flight status page for this flight to view local times or setup timezone preferences in your user account.

Time Position Orientation Groundspeed Altitude Reporting Facility
EDT Latitude Longitude Course Direction KTS MPH feet Rate Location/Type
11:10 34.6054 -105.5025 78° East  Level Estimated
11:11 34.6182 -105.3998 81° East  Level Estimated
11:12 34.6310 -105.2971 81° East  Level Estimated
11:13 34.6437 -105.1944 81° East  Level Estimated
11:14 34.6563 -105.0916 81° East  Level Estimated
11:15 34.6688 -104.9887 82° East  Level Estimated
11:16 34.6813 -104.8859 82° East  Level Estimated
11:17 34.6936 -104.7830 82° East  Level Estimated
11:18 34.7059 -104.6801 82° East  Level Estimated
11:19 34.7180 -104.5772 82° East  Level Estimated
11:20 34.7301 -104.4742 82° East  Level Estimated
11:21 34.7421 -104.3712 82° East  Level Estimated
11:22 34.7540 -104.2682 82° East  Level Estimated
11:23 34.7659 -104.1651 82° East  Level Estimated
11:24 34.7770 -104.0672 82° East  Level Estimated
11:25 34.7881 -103.9694 82° East  Level Estimated
11:26 34.7991 -103.8714 82° East  Level Estimated
11:27 34.8100 -103.7735 82° East  Level Estimated
11:28 34.8208 -103.6755 82° East  Level Estimated
11:29 34.8316 -103.5775 82° East  Level Estimated
11:30 34.8422 -103.4795 82° East  Level Estimated
11:31 34.8528 -103.3814 82° East  Level Estimated
11:32 34.8634 -103.2834 83° East  Level Estimated
11:33 34.8738 -103.1853 83° East  Level Estimated
11:34 34.8842 -103.0872 83° East  Level Estimated
11:35 34.8944 -102.9890 83° East  Level Estimated
11:36 34.9039 -102.8981 83° East  Level Estimated
11:37 34.9133 -102.8071 83° East  Level Estimated
11:38 34.9226 -102.7162 83° East  Level Estimated
11:39 34.9318 -102.6252 83° East  Level Estimated
11:40 34.9410 -102.5343 83° East  Level Estimated
11:41 34.9501 -102.4437 83° East  Level Estimated
11:42 34.9591 -102.3531 83° East  Level Estimated
11:43 34.9680 -102.2625 83° East  Level Estimated
11:44 34.9769 -102.1718 83° East  Level Estimated
11:45 34.9857 -102.0812 83° East  Level Estimated
11:46 34.9944 -101.9905 83° East  Level Estimated
11:47 35.0031 -101.8998 83° East  Level Estimated
11:48 35.0117 -101.8091 83° East  Level Estimated
11:49 35.0202 -101.7183 83° East  Level Estimated
11:50 35.0287 -101.6276 83° East  Level Estimated
11:51 35.0371 -101.5368 84° East  Level Estimated
11:52 35.0454 -101.4460 84° East  Level Estimated
11:53 35.0536 -101.3552 84° East  Level Estimated
11:54 35.0618 -101.2644 84° East  Level Estimated
11:55 35.0700 -101.1735 84° East  Level Estimated
11:56 35.0780 -101.0826 84° East  Level Estimated
11:57 35.0860 -100.9917 84° East  Level Estimated
11:58 35.0939 -100.9008 84° East  Level Estimated
11:59 35.1018 -100.8099 84° East  Level Estimated
12:00 35.1096 -100.7190 84° East  Level Estimated
12:01 35.1173 -100.6280 84° East  Level Estimated
12:02 35.1249 -100.5370 84° East  Level Estimated
12:03 35.1325 -100.4461 84° East  Level Estimated
12:04 35.1400 -100.3550 84° East  Level Estimated
12:05 35.1475 -100.2640 84° East  Level Estimated
12:06 35.1549 -100.1730 84° East  Level Estimated
12:07 35.1622 -100.0819 84° East  Level Estimated
12:08 35.1694 -99.9908 84° East  Level Estimated
12:09 35.1766 -99.8997 84° East  Level Estimated
12:10 35.1837 -99.8086 85° East  Level Estimated
12:11 35.1907 -99.7175 85° East  Level Estimated
12:12 35.1977 -99.6264 85° East  Level Estimated
12:13 35.2046 -99.5352 85° East  Level Estimated
12:14 35.2114 -99.4441 85° East  Level Estimated
12:15 35.2182 -99.3529 85° East  Level Estimated
12:16 35.2249 -99.2617 85° East  Level Estimated
12:17 35.2315 -99.1705 85° East  Level Estimated
12:18 35.2380 -99.0792 85° East  Level Estimated
12:19 35.2445 -98.9880 85° East  Level Estimated
12:20 35.2510 -98.8967 85° East  Level Estimated
12:21 35.2573 -98.8055 85° East  Level Estimated
12:22 35.2636 -98.7142 85° East  Level Estimated
12:23 35.2698 -98.6229 85° East  Level Estimated
12:24 35.2760 -98.5316 85° East  Level Estimated
12:25 35.2820 -98.4402 85° East  Level Estimated
12:26 35.2881 -98.3489 85° East  Level Estimated
12:27 35.2940 -98.2575 85° East  Level Estimated
12:28 35.2999 -98.1662 85° East  Level Estimated
12:29 35.3057 -98.0748 86° East  Level Estimated
12:30 35.3114 -97.9834 86° East  Level Estimated
12:31 35.3171 -97.8920 86° East  Level Estimated
12:32 35.3227 -97.8006 86° East  Level Estimated
12:33 35.3282 -97.7091 86° East  Level Estimated
12:34 35.3336 -97.6177 86° East  Level Estimated
12:35 35.3390 -97.5262 86° East  Level Estimated
12:36 35.3444 -97.4347 86° East  Level Estimated
12:37 35.3496 -97.3433 86° East  Level Estimated
12:38 35.3548 -97.2518 86° East  Level Estimated
12:39 35.3599 -97.1603 86° East  Level Estimated
12:40 35.3649 -97.0687 86° East  Level Estimated
12:41 35.3692 -96.9908 86° East  Level Estimated
12:42 35.3734 -96.9129 86° East  Level Estimated
12:43 35.3775 -96.8350 86° East  Level Estimated
12:44 35.3816 -96.7570 86° East  Level Estimated
12:45 35.3857 -96.6790 86° East  Level Estimated
12:46 35.3896 -96.6011 86° East  Level Estimated
12:47 35.3936 -96.5231 86° East  Level Estimated
12:48 35.3975 -96.4451 86° East  Level Estimated
12:49 35.4013 -96.3671 87° East  Level Estimated
12:50 35.4051 -96.2891 87° East  Level Estimated
12:51 35.4088 -96.2112 87° East  Level Estimated
12:52 35.4125 -96.1331 87° East  Level Estimated
12:53 35.4162 -96.0551 87° East  Level Estimated
12:54 35.4198 -95.9771 87° East  Level Estimated
12:55 35.4233 -95.8990 87° East  Level Estimated
12:56 35.4268 -95.8210 87° East  Level Estimated
12:57 35.4302 -95.7430 87° East  Level Estimated
12:58 35.4336 -95.6649 87° East  Level Estimated
12:59 35.4370 -95.5869 87° East  Level Estimated
13:00 35.4403 -95.5088 87° East  Level Estimated
13:01 35.4435 -95.4307 87° East  Level Estimated
13:02 35.4467 -95.3527 87° East  Level Estimated
13:03 35.4498 -95.2746 87° East  Level Estimated
13:04 35.4529 -95.1965 87° East  Level Estimated
13:05 35.4560 -95.1184 87° East  Level Estimated
13:06 35.4589 -95.0403 87° East  Level Estimated
13:07 35.4619 -94.9622 87° East  Level Estimated
13:08 35.4648 -94.8841 87° East  Level Estimated
13:09 35.4676 -94.8059 87° East  Level Estimated
13:10 35.4704 -94.7278 87° East  Level Estimated
13:11 35.4731 -94.6497 88° East  Level Estimated
13:12 35.4758 -94.5716 88° East  Level Estimated
13:13 35.4785 -94.4934 88° East  Level Estimated
13:14 35.4810 -94.4153 88° East  Level Estimated
13:15 35.4836 -94.3371 88° East  Level Estimated
13:16 35.4860 -94.2590 88° East  Level Estimated
13:17 35.4885 -94.1808 88° East  Level Estimated
13:18 35.4908 -94.1027 88° East  Level Estimated
13:19 35.4932 -94.0245 88° East  Level Estimated
13:20 35.4955 -93.9463 88° East  Level Estimated
13:21 35.4977 -93.8681 88° East  Level Estimated
13:22 35.4997 -93.7974 88° East  Level Estimated
13:23 35.5016 -93.7266 88° East  Level Estimated
13:24 35.5035 -93.6558 88° East  Level Estimated
13:25 35.5053 -93.5850 88° East  Level Estimated
13:26 35.5072 -93.5142 88° East  Level Estimated
13:27 35.5089 -93.4433 88° East  Level Estimated
13:28 35.5107 -93.3725 88° East  Level Estimated
13:29 35.5123 -93.3017 88° East  Level Estimated
13:30 35.5140 -93.2309 88° East  Level Estimated
13:31 35.5156 -93.1601 88° East  Level Estimated
13:32 35.5172 -93.0892 88° East  Level Estimated
13:33 35.5187 -93.0184 88° East  Level Estimated
13:34 35.5202 -92.9476 89° East  Level Estimated
13:35 35.5216 -92.8767 89° East  Level Estimated
13:36 35.5230 -92.8059 89° East  Level Estimated
13:37 35.5244 -92.7351 89° East  Level Estimated
13:38 35.5257 -92.6642 89° East  Level Estimated
13:39 35.5269 -92.5934 89° East  Level Estimated
13:40 35.5282 -92.5226 89° East  Level Estimated
13:41 35.5294 -92.4517 89° East  Level Estimated
13:42 35.5305 -92.3809 89° East  Level Estimated
13:43 35.5316 -92.3100 89° East  Level Estimated
13:44 35.5327 -92.2392 89° East  Level Estimated
13:45 35.5337 -92.1683 89° East  Level Estimated
13:46 35.5347 -92.0974 89° East  Level Estimated
13:47 35.5356 -92.0266 89° East  Level Estimated
13:48 35.5365 -91.9557 89° East  Level Estimated
13:49 35.5374 -91.8849 89° East  Level Estimated
13:50 35.5382 -91.8140 89° East  Level Estimated
13:51 35.5390 -91.7431 89° East  Level Estimated
13:52 35.5397 -91.6723 89° East  Level Estimated
13:53 35.5404 -91.6014 89° East  Level Estimated
13:54 35.5411 -91.5305 89° East  Level Estimated
13:55 35.5417 -91.4597 89° East  Level Estimated
13:56 35.5422 -91.3888 89° East  Level Estimated
13:57 35.5428 -91.3179 89° East  Level Estimated
13:58 35.5433 -91.2470 89° East  Level Estimated
13:59 35.5437 -91.1762 90° East  Level Estimated
14:00 35.5441 -91.1053 90° East  Level Estimated
14:01 35.5445 -91.0344 90° East  Level Estimated
14:02 35.5448 -90.9636 90° East  Level Estimated
14:03 35.5451 -90.8927 90° East  Level Estimated
14:04 35.5453 -90.8218 90° East  Level Estimated
14:05 35.5455 -90.7509 90° East  Level Estimated
14:06 35.5457 -90.6801 90° East  Level Estimated
14:07 35.5458 -90.6092 90° East  Level Estimated
14:08 35.5458 -90.5383 90° East  Level Estimated
14:09 35.5459 -90.4674 90° East  Level Estimated
14:10 35.5458 -90.3965 90° East  Level Estimated
14:11 35.5458 -90.3257 90° East  Level Estimated
14:12 35.5457 -90.2548 90° East  Level Estimated
14:13 35.5456 -90.1839 90° East  Level Estimated
14:14 35.5454 -90.1130 90° East  Level Estimated
14:15 35.5452 -90.0421 90° East  Level Estimated
14:16 35.5449 -89.9713 90° East  Level Estimated
14:17 35.5446 -89.9004 90° East  Level Estimated
14:18 35.5443 -89.8295 90° East  Level Estimated
14:19 35.5439 -89.7586 90° East  Level Estimated
14:20 35.5435 -89.6878 90° East  Level Estimated
14:21 35.5430 -89.6169 90° East  Level Estimated
14:22 35.5425 -89.5460 90° East  Level Estimated
14:23 35.5419 -89.4752 91° East  Level Estimated
14:24 35.5413 -89.4043 91° East  Level Estimated
14:25 35.5407 -89.3334 91° East  Level Estimated
14:26 35.5400 -89.2625 91° East  Level Estimated
14:27 35.5393 -89.1917 91° East  Level Estimated
14:28 35.5386 -89.1208 91° East  Level Estimated
14:29 35.5378 -89.0499 91° East  Level Estimated
14:30 35.5369 -88.9791 91° East  Level Estimated
14:31 35.5360 -88.9082 91° East  Level Estimated
14:32 35.5351 -88.8374 91° East  Level Estimated
14:33 35.5341 -88.7665 91° East  Level Estimated
14:34 35.5331 -88.6956 91° East  Level Estimated
14:35 35.5321 -88.6248 91° East  Level Estimated
14:36 35.5310 -88.5539 91° East  Level Estimated
14:37 35.5299 -88.4831 91° East  Level Estimated
14:38 35.5287 -88.4122 91° East  Level Estimated
14:39 35.5275 -88.3414 91° East  Level Estimated
14:40 35.5262 -88.2706 91° East  Level Estimated
14:41 35.5249 -88.1997 91° East  Level Estimated
14:42 35.5236 -88.1289 91° East  Level Estimated
14:43 35.5222 -88.0580 91° East  Level Estimated
14:44 35.5208 -87.9872 91° East  Level Estimated
14:45 35.5193 -87.9164 91° East  Level Estimated
14:46 35.5178 -87.8456 91° East  Level Estimated
14:47 35.5163 -87.7747 92° East  Level Estimated
14:48 35.5147 -87.7039 92° East  Level Estimated
14:49 35.5131 -87.6331 92° East  Level Estimated
14:50 35.5114 -87.5623 92° East  Level Estimated
14:51 35.5097 -87.4914 92° East  Level Estimated
14:52 35.5079 -87.4206 92° East  Level Estimated
14:53 35.5061 -87.3498 92° East  Level Estimated
14:54 35.5043 -87.2790 92° East  Level Estimated
14:55 35.5024 -87.2082 92° East  Level Estimated
14:56 35.5005 -87.1374 92° East  Level Estimated
14:57 35.4985 -87.0666 92° East  Level Estimated
14:58 35.4965 -86.9958 92° East  Level Estimated
14:59 35.4945 -86.9250 92° East  Level Estimated
15:00 35.4924 -86.8543 92° East  Level Estimated
15:01 35.4903 -86.7835 92° East  Level Estimated
15:02 35.4881 -86.7127 92° East  Level Estimated
15:03 35.4859 -86.6419 92° East  Level Estimated
15:04 35.4837 -86.5712 92° East  Level Estimated
15:05 35.4814 -86.5004 92° East  Level Estimated
15:06 35.4790 -86.4296 92° East  Level Estimated
15:07 35.4767 -86.3589 92° East  Level Estimated
15:08 35.4743 -86.2881 92° East  Level Estimated
15:09 35.4718 -86.2174 92° East  Level Estimated
15:10 35.4693 -86.1466 92° East  Level Estimated
15:11 35.4668 -86.0759 93° East  Level Estimated
15:12 35.4642 -86.0051 93° East  Level Estimated
15:13 35.4616 -85.9344 93° East  Level Estimated
15:14 35.4589 -85.8637 93° East  Level Estimated
15:15 35.4562 -85.7930 93° East  Level Estimated
15:16 35.4535 -85.7223 93° East  Level Estimated
15:17 35.4507 -85.6515 93° East  Level Estimated
15:18 35.4479 -85.5808 93° East  Level Estimated
15:19 35.4450 -85.5101 93° East  Level Estimated
15:20 35.4421 -85.4394 93° East  Level Estimated
15:21 35.4391 -85.3687 93° East  Level Estimated
15:22 35.4361 -85.2980 93° East  Level Estimated
15:23 35.4331 -85.2274 93° East  Level Estimated
15:24 35.4300 -85.1567 93° East  Level Estimated
15:25 35.4269 -85.0860 93° East  Level Estimated
15:26 35.4238 -85.0154 93° East  Level Estimated
15:27 35.4206 -84.9447 93° East  Level Estimated
15:28 35.4173 -84.8740 93° East  Level Estimated
15:29 35.4141 -84.8034 93° East  Level Estimated
15:30 35.4107 -84.7328 93° East  Level Estimated
15:31 35.4074 -84.6621 93° East  Level Estimated
15:32 35.4040 -84.5915 93° East  Level Estimated
15:33 35.4005 -84.5209 93° East  Level Estimated
15:34 35.3970 -84.4502 93° East  Level Estimated
15:35 35.3935 -84.3796 93° East  Level Estimated
15:36 35.3899 -84.3090 94° East  Level Estimated
15:37 35.3863 -84.2384 94° East  Level Estimated
15:38 35.3827 -84.1678 94° East  Level Estimated
15:39 35.3790 -84.0973 94° East  Level Estimated
15:40 35.3753 -84.0267 94° East  Level Estimated
15:41 35.3715 -83.9561 94° East  Level Estimated
15:42 35.3677 -83.8855 94° East  Level Estimated
15:43 35.3638 -83.8150 94° East  Level Estimated
15:44 35.3599 -83.7444 94° East  Level Estimated
15:45 35.3560 -83.6739 94° East  Level Estimated
15:46 35.3520 -83.6033 94° East  Level Estimated
15:47 35.3480 -83.5328 94° East  Level Estimated
15:48 35.3439 -83.4623 94° East  Level Estimated
15:49 35.3398 -83.3917 94° East  Level Estimated
15:50 35.3357 -83.3212 94° East  Level Estimated
15:51 35.3315 -83.2507 94° East  Level Estimated
15:52 35.3273 -83.1802 94° East  Level Estimated
15:53 35.3230 -83.1097 94° East  Level Estimated
15:54 35.3187 -83.0393 94° East  Level Estimated
15:55 35.3144 -82.9688 94° East  Level Estimated
15:56 35.3100 -82.8983 94° East  Level Estimated
15:57 35.3056 -82.8279 94° East  Level Estimated
15:58 35.3011 -82.7574 94° East  Level Estimated
15:59 35.2966 -82.6870 94° East  Level Estimated
16:00 35.2920 -82.6165 95° East  Level Estimated
16:01 35.2874 -82.5461 95° East  Level Estimated
16:02 35.2828 -82.4757 95° East  Level Estimated
16:03 35.2781 -82.4053 95° East  Level Estimated
16:04 35.2734 -82.3349 95° East  Level Estimated
16:05 35.2687 -82.2645 95° East  Level Estimated
16:06 35.2639 -82.1941 95° East  Level Estimated
16:07 35.2590 -82.1237 95° East  Level Estimated
16:08 35.2542 -82.0533 95° East  Level Estimated
16:09 35.2492 -81.9830 95° East  Level Estimated
16:10 35.2443 -81.9126 95° East  Level Estimated
16:11 35.2393 -81.8423 95° East  Level Estimated
16:12 35.2342 -81.7719 95° East  Level Estimated
16:13 35.2292 -81.7016 95° East  Level Estimated
16:14 35.2240 -81.6313 95° East  Level Estimated
16:15 35.2189 -81.5610 95° East  Level Estimated
16:16 35.2137 -81.4907 95° East  Level Estimated
16:17 35.2085 -81.4204 95° East  Level Estimated
16:18 35.2032 -81.3501 95° East  Level Estimated
16:19 35.1978 -81.2798 95° East  Level Estimated
16:20 35.1925 -81.2096 95° East  Level Estimated
16:21 35.1871 -81.1393 95° East  Level Estimated
16:22 35.1816 -81.0691 95° East  Level Estimated
16:23 35.1761 -80.9988 95° East  Level Estimated
16:24 35.1706 -80.9286 95° East  Level Estimated
16:25 35.1650 -80.8584 96° East  Level Estimated
16:26 35.1594 -80.7882 96° East  Level Estimated
16:27 35.1538 -80.7180 96° East  Level Estimated
16:28 35.1481 -80.6478 96° East  Level Estimated
16:29 35.1424 -80.5776 96° East  Level Estimated
16:30 35.1366 -80.5074 96° East  Level Estimated
16:31 35.1308 -80.4373 96° East  Level Estimated
16:32 35.1249 -80.3671 96° East  Level Estimated
16:33 35.1190 -80.2970 96° East  Level Estimated
16:34 35.1131 -80.2269 96° East  Level Estimated
16:35 35.1071 -80.1568 96° East  Level Estimated
16:36 35.1011 -80.0866 96° East  Level Estimated
16:37 35.0951 -80.0165 96° East  Level Estimated
16:38 35.0890 -79.9464 96° East  Level Estimated
16:39 35.0829 -79.8764 96° East  Level Estimated
16:40 35.0767 -79.8063 96° East  Level Estimated
16:41 35.0705 -79.7363 96° East  Level Estimated
16:42 35.0642 -79.6662 96° East  Level Estimated
16:43 35.0579 -79.5962 96° East  Level Estimated
16:44 35.0516 -79.5262 96° East  Level Estimated
16:45 35.0452 -79.4561 96° East  Level Estimated
16:46 35.0388 -79.3861 96° East  Level Estimated
16:47 35.0323 -79.3162 96° East  Level Estimated
16:48 35.0258 -79.2462 96° East  Level Estimated
16:49 35.0193 -79.1762 96° East  Level Estimated
16:50 35.0127 -79.1062 97° East  Level Estimated
16:51 35.0061 -79.0363 97° East  Level Estimated
16:52 34.9995 -78.9664 97° East  Level Estimated
16:53 34.9928 -78.8965 97° East  Level Estimated
16:54 34.9912 -78.8803 97° East  Level Estimated
16:55 34.9912 -78.8803 39° Northeast  Level Estimated
16:56 34.9912 -78.8803 39° Northeast  Level Estimated
16:57 34.9912 -78.8803 39° Northeast  Level Estimated
16:58 34.9912 -78.8803 39° Northeast  Level Estimated
16:59 34.9912 -78.8803 39° Northeast  Level Estimated
17:00 34.9912 -78.8803 39° Northeast  Level Estimated
17:01 34.9912 -78.8803 39° Northeast  Level Estimated
17:02 34.9912 -78.8803 39° Northeast  Level Estimated
17:03 34.9912 -78.8803 39° Northeast  Level Estimated
17:04 34.9912 -78.8803 39° Northeast  Level Estimated
17:05 34.9912 -78.8803 39° Northeast  Level Estimated
17:06 34.9912 -78.8803 39° Northeast  Level Estimated
17:07 34.9912 -78.8803 39° Northeast  Level Estimated
17:08 34.9912 -78.8803 39° Northeast  Level Estimated
17:09 34.9912 -78.8803 39° Northeast  Level Estimated
17:10 34.9912 -78.8803 39° Northeast  Level Estimated
17:11 34.9912 -78.8803 39° Northeast  Level Estimated
17:12 34.9912 -78.8803 39° Northeast  Level Estimated
17:13 34.9912 -78.8803 39° Northeast  Level Estimated
17:14 34.9912 -78.8803 39° Northeast  Level Estimated
17:15 34.9912 -78.8803 39° Northeast  Level Estimated
17:16 34.9912 -78.8803 39° Northeast  Level Estimated
17:17 34.9912 -78.8803 39° Northeast  Level Estimated
17:18 34.9912 -78.8803 39° Northeast  Level Estimated
17:19 34.9912 -78.8803 39° Northeast  Level Estimated
17:20 34.9912 -78.8803 39° Northeast  Level Estimated
17:21 34.9912 -78.8803 39° Northeast  Level Estimated
17:22 34.9912 -78.8803 39° Northeast  Level Estimated
17:23 34.9912 -78.8803 39° Northeast  Level Estimated
17:24 34.9912 -78.8803 39° Northeast  Level Estimated
17:25 34.9912 -78.8803 39° Northeast  Level Estimated
17:26 34.9912 -78.8803 39° Northeast  Level Estimated
17:27 34.9912 -78.8803 39° Northeast  Level Estimated
17:28 34.9912 -78.8803 39° Northeast  Level Estimated
17:29 34.9912 -78.8803 39° Northeast  Level Estimated
17:30 34.9912 -78.8803 39° Northeast  Level Estimated
17:31 34.9912 -78.8803 39° Northeast  Level Estimated
17:32 34.9912 -78.8803 39° Northeast  Level Estimated
17:33 34.9912 -78.8803 39° Northeast  Level Estimated
17:34 34.9912 -78.8803 39° Northeast  Level Estimated
17:35 34.9912 -78.8803 39° Northeast  Level Estimated
17:36 34.9912 -78.8803 39° Northeast  Level Estimated
17:37 34.9912 -78.8803 39° Northeast  Level Estimated
17:38 34.9912 -78.8803 39° Northeast  Level Estimated
17:39 34.9912 -78.8803 39° Northeast  Level Estimated
17:40 34.9912 -78.8803 39° Northeast  Level Estimated
17:41 34.9912 -78.8803 39° Northeast  Level Estimated
17:42 34.9912 -78.8803 39° Northeast  Level Estimated
17:43 34.9912 -78.8803 39° Northeast  Level Estimated
17:44 34.9912 -78.8803 39° Northeast  Level Estimated
17:45 34.9912 -78.8803 39° Northeast  Level Estimated
17:46 34.9912 -78.8803 39° Northeast  Level Estimated
17:47 34.9912 -78.8803 39° Northeast  Level Estimated
17:48 34.9912 -78.8803 39° Northeast  Level Estimated
17:49 34.9912 -78.8803 39° Northeast  Level Estimated
17:50 34.9912 -78.8803 39° Northeast  Level Estimated
17:51 34.9912 -78.8803 39° Northeast  Level Estimated
17:52 34.9912 -78.8803 39° Northeast  Level Estimated
17:53 34.9912 -78.8803 39° Northeast  Level Estimated
17:54 34.9912 -78.8803 39° Northeast  Level Estimated
17:55 34.9912 -78.8803 39° Northeast  Level Estimated
17:56 34.9912 -78.8803 39° Northeast  Level Estimated
17:57 34.9912 -78.8803 39° Northeast  Level Estimated
17:58 34.9912 -78.8803 39° Northeast  Level Estimated
17:59 34.9912 -78.8803 39° Northeast  Level Estimated